createdAt,value
2022-11-17T00:01:34.211Z,100284.00
2022-11-17T00:04:13.450Z,100290.00
2022-11-17T00:06:58.198Z,100305.00
2022-11-17T00:09:31.874Z,100298.00
2022-11-17T00:12:32.875Z,100302.00
2022-11-17T00:15:21.662Z,100295.00
2022-11-17T00:18:04.181Z,100290.00
2022-11-17T00:20:54.802Z,100289.00
2022-11-17T00:23:27.896Z,100279.00
2022-11-17T00:26:01.370Z,100288.00
2022-11-17T00:28:34.644Z,100284.00
2022-11-17T00:31:25.341Z,100281.00
2022-11-17T00:34:15.290Z,100274.00
2022-11-17T00:36:52.815Z,100280.00
2022-11-17T00:39:26.986Z,100289.00
2022-11-17T00:42:00.387Z,100288.00
2022-11-17T00:44:33.457Z,100281.00
2022-11-17T00:47:06.842Z,100260.00
2022-11-17T00:49:39.840Z,100258.00
2022-11-17T00:52:13.419Z,100246.00
2022-11-17T00:54:46.706Z,100242.00
2022-11-17T00:57:19.596Z,100243.00
2022-11-17T00:59:52.641Z,100253.00
2022-11-17T01:02:25.576Z,100239.00
2022-11-17T01:04:58.628Z,100239.00
2022-11-17T01:07:31.574Z,100225.00
2022-11-17T01:10:04.591Z,100219.00
2022-11-17T01:12:37.544Z,100219.00
2022-11-17T01:15:11.429Z,100207.00
2022-11-17T01:17:44.366Z,100202.00
2022-11-17T01:20:17.615Z,100198.00
2022-11-17T01:22:50.787Z,100202.00
2022-11-17T01:25:23.711Z,100202.00
2022-11-17T01:27:56.663Z,100215.00
2022-11-17T01:30:29.727Z,100229.00
2022-11-17T01:33:02.650Z,100228.00
2022-11-17T01:35:37.219Z,100243.00
2022-11-17T01:38:10.276Z,100256.00
2022-11-17T01:40:43.255Z,100258.00
2022-11-17T01:43:16.497Z,100242.00
2022-11-17T01:45:49.446Z,100243.00
2022-11-17T01:48:22.428Z,100224.00
2022-11-17T01:50:55.413Z,100208.00
2022-11-17T01:53:29.477Z,100200.00
2022-11-17T01:56:04.531Z,100209.00
2022-11-17T01:58:39.471Z,100207.00
2022-11-17T02:01:12.611Z,100204.00
2022-11-17T02:03:47.945Z,100191.00
2022-11-17T02:06:28.608Z,100188.00
2022-11-17T02:09:03.018Z,100185.00
2022-11-17T02:11:38.009Z,100175.00
2022-11-17T02:14:11.820Z,100179.00
2022-11-17T02:16:44.667Z,100176.00
2022-11-17T02:19:19.487Z,100164.00
2022-11-17T02:22:03.266Z,100172.00
2022-11-17T02:25:00.402Z,100162.00
2022-11-17T02:28:04.155Z,100160.00
2022-11-17T02:30:41.501Z,100148.00
2022-11-17T02:33:21.697Z,100151.00
2022-11-17T02:35:59.729Z,100137.00
2022-11-17T02:38:49.367Z,100151.00
2022-11-17T02:41:24.998Z,100162.00
2022-11-17T02:44:09.836Z,100152.00
2022-11-17T02:46:59.895Z,100150.00
2022-11-17T02:49:34.995Z,100145.00
2022-11-17T02:52:09.243Z,100156.00
2022-11-17T02:54:42.358Z,100157.00
2022-11-17T02:57:39.586Z,100154.00
2022-11-17T03:00:17.891Z,100150.00
2022-11-17T03:03:02.693Z,100141.00
2022-11-17T03:05:43.234Z,100148.00
2022-11-17T03:08:21.578Z,100148.00
2022-11-17T03:11:02.039Z,100150.00
2022-11-17T03:13:55.227Z,100136.00
2022-11-17T03:16:35.796Z,100124.00
2022-11-17T03:19:25.278Z,100126.00
2022-11-17T03:22:18.273Z,100124.00
2022-11-17T03:24:53.329Z,100121.00
2022-11-17T03:27:34.439Z,100119.00
2022-11-17T03:30:12.647Z,100121.00
2022-11-17T03:32:47.875Z,100119.00
2022-11-17T03:35:29.034Z,100114.00
2022-11-17T03:38:03.743Z,100109.00
2022-11-17T03:40:38.116Z,100114.00
2022-11-17T03:43:12.942Z,100106.00
2022-11-17T03:45:48.218Z,100103.00
2022-11-17T03:48:40.995Z,100095.00
2022-11-17T03:51:21.842Z,100101.00
2022-11-17T03:53:56.144Z,100111.00
2022-11-17T03:56:59.894Z,100110.00
2022-11-17T03:59:49.649Z,100113.00
2022-11-17T04:02:24.184Z,100109.00
2022-11-17T04:05:09.798Z,100118.00
2022-11-17T04:07:44.729Z,100114.00
2022-11-17T04:10:19.545Z,100107.00
2022-11-17T04:13:10.690Z,100107.00
2022-11-17T04:16:03.397Z,100113.00
2022-11-17T04:18:36.423Z,100106.00
2022-11-17T04:21:09.472Z,100107.00
2022-11-17T04:23:42.582Z,100105.00
2022-11-17T04:26:33.274Z,100120.00
2022-11-17T04:29:06.294Z,100112.00
2022-11-17T04:31:39.522Z,100115.00
2022-11-17T04:34:12.541Z,100113.00
2022-11-17T04:36:52.615Z,100112.00
2022-11-17T04:39:25.633Z,100118.00
2022-11-17T04:42:02.355Z,100120.00
2022-11-17T04:44:36.352Z,100108.00
2022-11-17T04:47:09.445Z,100119.00
2022-11-17T04:49:42.518Z,100118.00
2022-11-17T04:52:20.865Z,100108.00
2022-11-17T04:54:54.078Z,100094.00
2022-11-17T04:57:27.554Z,100099.00
2022-11-17T05:00:00.681Z,100107.00
2022-11-17T05:02:33.666Z,100102.00
2022-11-17T05:05:06.931Z,100102.00
2022-11-17T05:07:39.956Z,100099.00
2022-11-17T05:10:15.145Z,100096.00
2022-11-17T05:13:05.516Z,100093.00
2022-11-17T05:15:56.216Z,100092.00
2022-11-17T05:18:29.346Z,100085.00
2022-11-17T05:21:06.559Z,100082.00
2022-11-17T05:24:02.728Z,100095.00
2022-11-17T05:26:37.171Z,100096.00
2022-11-17T05:29:10.739Z,100087.00
2022-11-17T05:31:43.816Z,100084.00
2022-11-17T05:34:17.730Z,100093.00
2022-11-17T05:36:50.682Z,100096.00
2022-11-17T05:39:23.834Z,100092.00
2022-11-17T05:41:57.083Z,100096.00
2022-11-17T05:44:29.894Z,100091.00
2022-11-17T05:47:05.957Z,100100.00
2022-11-17T05:49:39.180Z,100093.00
2022-11-17T05:52:12.141Z,100089.00
2022-11-17T05:54:45.167Z,100093.00
2022-11-17T05:57:19.903Z,100095.00
2022-11-17T05:59:54.550Z,100103.00
2022-11-17T06:02:32.222Z,100095.00
2022-11-17T06:05:06.021Z,100096.00
2022-11-17T06:07:40.224Z,100102.00
2022-11-17T06:10:14.117Z,100105.00
2022-11-17T06:12:47.119Z,100098.00
2022-11-17T06:15:20.183Z,100106.00
2022-11-17T06:17:54.919Z,100100.00
2022-11-17T06:20:30.524Z,100113.00
2022-11-17T06:23:05.438Z,100106.00
2022-11-17T06:25:39.038Z,100106.00
2022-11-17T06:28:14.167Z,100110.00
2022-11-17T06:30:47.284Z,100103.00
2022-11-17T06:33:21.457Z,100113.00
2022-11-17T06:35:54.913Z,100112.00
2022-11-17T06:38:27.927Z,100107.00
2022-11-17T06:41:00.827Z,100101.00
2022-11-17T06:43:34.493Z,100099.00
2022-11-17T06:46:09.109Z,100104.00
2022-11-17T06:48:42.144Z,100109.00
2022-11-17T06:51:15.509Z,100106.00
2022-11-17T06:53:48.579Z,100110.00
2022-11-17T06:56:21.506Z,100100.00
2022-11-17T06:58:54.738Z,100095.00
2022-11-17T07:01:27.892Z,100095.00
2022-11-17T07:04:00.795Z,100087.00
2022-11-17T07:06:34.227Z,100095.00
2022-11-17T07:09:07.937Z,100106.00
2022-11-17T07:11:49.450Z,100103.00
2022-11-17T07:14:26.969Z,100096.00
2022-11-17T07:16:59.846Z,100099.00
2022-11-17T07:19:32.692Z,100101.00
2022-11-17T07:22:06.659Z,100090.00
2022-11-17T07:24:39.681Z,100104.00
2022-11-17T07:27:12.727Z,100101.00
2022-11-17T07:29:45.709Z,100115.00
2022-11-17T07:32:18.748Z,100107.00
2022-11-17T07:34:51.735Z,100106.00
2022-11-17T07:37:24.699Z,100109.00
2022-11-17T07:39:57.793Z,100104.00
2022-11-17T07:42:30.737Z,100110.00
2022-11-17T07:45:03.773Z,100107.00
2022-11-17T07:47:36.655Z,100059.00
2022-11-17T07:50:10.479Z,100107.00
2022-11-17T07:52:43.523Z,100107.00
2022-11-17T07:55:16.499Z,100119.00
2022-11-17T07:57:49.601Z,100121.00
2022-11-17T08:00:22.896Z,100124.00
2022-11-17T08:02:55.869Z,100120.00
2022-11-17T08:05:29.973Z,100129.00
2022-11-17T08:08:03.649Z,100133.00
2022-11-17T08:10:36.823Z,100130.00
2022-11-17T08:13:10.083Z,100138.00
2022-11-17T08:15:43.219Z,100129.00
2022-11-17T08:18:16.143Z,100135.00
2022-11-17T08:20:49.056Z,100145.00
2022-11-17T08:23:22.115Z,100143.00
2022-11-17T08:25:55.256Z,100149.00
2022-11-17T08:28:28.188Z,100147.00
2022-11-17T08:31:02.489Z,100146.00
2022-11-17T08:33:35.819Z,100144.00
2022-11-17T08:36:12.427Z,100142.00
2022-11-17T08:38:45.575Z,100133.00
2022-11-17T08:41:18.730Z,100135.00
2022-11-17T08:43:51.927Z,100145.00
2022-11-17T08:46:25.035Z,100142.00
2022-11-17T08:48:59.164Z,100143.00
2022-11-17T08:51:32.354Z,100151.00
2022-11-17T08:54:05.377Z,100143.00
2022-11-17T08:56:38.186Z,100145.00
2022-11-17T08:59:11.357Z,100145.00
2022-11-17T09:01:44.693Z,100142.00
2022-11-17T09:04:17.630Z,100152.00
2022-11-17T09:06:50.877Z,100153.00
2022-11-17T09:09:24.226Z,100155.00
2022-11-17T09:11:57.274Z,100162.00
2022-11-17T09:14:30.330Z,100163.00
2022-11-17T09:17:03.381Z,100167.00
2022-11-17T09:19:36.404Z,100158.00
2022-11-17T09:22:10.162Z,100159.00
2022-11-17T09:24:43.225Z,100155.00
2022-11-17T09:27:20.272Z,100161.00
2022-11-17T09:29:53.273Z,100165.00
2022-11-17T09:32:26.246Z,100158.00
2022-11-17T09:34:59.438Z,100160.00
2022-11-17T09:37:32.432Z,100154.00
2022-11-17T09:40:05.432Z,100154.00
2022-11-17T09:42:46.287Z,100150.00
2022-11-17T09:45:27.437Z,100155.00
2022-11-17T09:48:38.964Z,100160.00
2022-11-17T09:50:43.897Z,100166.00
2022-11-17T09:53:30.874Z,100163.00
2022-11-17T09:56:05.794Z,100151.00
2022-11-17T09:58:49.837Z,100147.00
2022-11-17T10:01:24.373Z,100152.00
2022-11-17T10:03:58.744Z,100139.00
2022-11-17T10:06:34.182Z,100134.00
2022-11-17T10:09:27.440Z,100130.00
2022-11-17T10:12:02.315Z,100138.00
2022-11-17T10:14:38.136Z,100136.00
2022-11-17T10:17:12.528Z,100142.00
2022-11-17T10:19:47.249Z,100146.00
2022-11-17T10:22:24.786Z,100136.00
2022-11-17T10:24:59.699Z,100144.00
2022-11-17T10:27:34.970Z,100141.00
2022-11-17T10:30:13.027Z,100130.00
2022-11-17T10:32:48.634Z,100137.00
2022-11-17T10:35:23.464Z,100143.00
2022-11-17T10:38:14.594Z,100139.00
2022-11-17T10:40:49.348Z,100147.00
2022-11-17T10:43:24.338Z,100155.00
2022-11-17T10:45:59.282Z,100158.00
2022-11-17T10:48:40.211Z,100155.00
2022-11-17T10:51:24.077Z,100152.00
2022-11-17T10:54:09.427Z,100147.00
2022-11-17T10:56:47.277Z,100148.00
2022-11-17T10:59:38.293Z,100136.00
2022-11-17T11:02:25.035Z,100130.00
2022-11-17T11:05:11.745Z,100124.00
2022-11-17T11:07:45.697Z,100122.00
2022-11-17T11:10:29.281Z,100117.00
2022-11-17T11:13:21.207Z,100103.00
2022-11-17T11:15:55.559Z,100111.00
2022-11-17T11:18:29.988Z,100103.00
2022-11-17T11:21:07.620Z,100104.00
2022-11-17T11:23:48.745Z,100105.00
2022-11-17T11:26:41.993Z,100123.00
2022-11-17T11:29:33.755Z,100117.00
2022-11-17T11:32:20.820Z,100114.00
2022-11-17T11:35:01.312Z,100114.00
2022-11-17T11:37:36.030Z,100112.00
2022-11-17T11:40:29.532Z,100102.00
2022-11-17T11:43:05.105Z,100103.00
2022-11-17T11:45:51.860Z,100097.00
2022-11-17T11:48:37.332Z,100097.00
2022-11-17T11:51:27.321Z,100087.00
2022-11-17T11:54:03.020Z,100088.00
2022-11-17T11:56:40.968Z,100083.00
2022-11-17T11:59:25.399Z,100094.00
2022-11-17T12:02:21.934Z,100093.00
2022-11-17T12:05:24.074Z,100089.00
2022-11-17T12:08:17.126Z,100088.00
2022-11-17T12:11:05.234Z,100076.00
2022-11-17T12:13:45.326Z,100067.00
2022-11-17T12:16:26.125Z,100076.00
2022-11-17T12:18:59.061Z,100073.00
2022-11-17T12:21:32.660Z,100066.00
2022-11-17T12:24:22.487Z,100055.00
2022-11-17T12:26:55.600Z,100046.00
2022-11-17T12:29:33.919Z,100046.00
2022-11-17T12:32:07.488Z,100037.00
2022-11-17T12:34:40.716Z,100056.00
2022-11-17T12:37:30.536Z,100043.00
2022-11-17T12:40:12.191Z,100042.00
2022-11-17T12:42:47.405Z,100038.00
2022-11-17T12:45:20.541Z,100034.00
2022-11-17T12:48:11.508Z,100042.00
2022-11-17T12:50:47.897Z,100037.00
2022-11-17T12:53:32.177Z,100041.00
2022-11-17T12:56:19.284Z,100036.00
2022-11-17T12:59:00.256Z,100031.00
2022-11-17T13:01:57.659Z,100026.00
2022-11-17T13:04:35.235Z,100012.00
2022-11-17T13:07:10.547Z,100008.00
2022-11-17T13:09:43.668Z,100004.00
2022-11-17T13:12:16.740Z,100002.00
2022-11-17T13:15:00.147Z,100021.00
2022-11-17T13:17:46.474Z,100018.00
2022-11-17T13:20:30.113Z,100021.00
2022-11-17T13:23:20.274Z,100012.00
2022-11-17T13:25:53.803Z,100002.00
2022-11-17T13:28:31.664Z,100009.00
2022-11-17T13:31:05.390Z,100003.00
2022-11-17T13:33:40.520Z,100003.00
2022-11-17T13:36:21.701Z,99998.00
2022-11-17T13:38:57.772Z,100010.00
2022-11-17T13:41:32.136Z,100008.00
2022-11-17T13:44:05.944Z,100014.00
2022-11-17T13:46:40.733Z,100015.00
2022-11-17T13:49:35.019Z,100010.00
2022-11-17T13:52:12.932Z,99999.00
2022-11-17T13:54:47.618Z,100002.00
2022-11-17T13:57:22.780Z,99995.00
2022-11-17T13:59:55.802Z,99993.00
2022-11-17T14:02:31.707Z,99997.00
2022-11-17T14:05:20.023Z,99999.00
2022-11-17T14:07:53.450Z,99991.00
2022-11-17T14:10:29.507Z,99991.00
2022-11-17T14:13:10.703Z,99987.00
2022-11-17T14:15:52.154Z,99986.00
2022-11-17T14:18:34.698Z,99990.00
2022-11-17T14:21:15.526Z,99995.00
2022-11-17T14:23:49.140Z,99985.00
2022-11-17T14:26:23.887Z,99991.00
2022-11-17T14:28:57.239Z,99993.00
2022-11-17T14:31:30.019Z,99987.00
2022-11-17T14:34:03.091Z,99995.00
2022-11-17T14:36:37.022Z,99988.00
2022-11-17T14:39:18.012Z,99979.00
2022-11-17T14:41:57.093Z,99984.00
2022-11-17T14:44:30.104Z,99974.00
2022-11-17T14:47:03.240Z,99976.00
2022-11-17T14:49:36.125Z,99967.00
2022-11-17T14:52:09.271Z,99966.00
2022-11-17T14:54:43.234Z,99958.00
2022-11-17T14:57:16.201Z,99967.00
2022-11-17T14:59:49.184Z,99968.00
2022-11-17T15:02:22.299Z,99968.00
2022-11-17T15:04:55.795Z,99967.00
2022-11-17T15:07:29.345Z,99968.00
2022-11-17T15:10:02.518Z,99974.00
2022-11-17T15:12:35.651Z,99973.00
2022-11-17T15:15:09.017Z,99984.00
2022-11-17T15:17:42.131Z,99969.00
2022-11-17T15:20:15.609Z,99971.00
2022-11-17T15:22:48.529Z,99980.00
2022-11-17T15:25:21.497Z,99977.00
2022-11-17T15:27:55.838Z,99986.00
2022-11-17T15:30:28.742Z,99986.00
2022-11-17T15:33:02.829Z,99986.00
2022-11-17T15:35:35.688Z,99986.00
2022-11-17T15:38:08.509Z,99987.00
2022-11-17T15:40:41.294Z,99987.00
2022-11-17T15:43:14.221Z,99988.00
2022-11-17T15:45:47.255Z,99988.00
2022-11-17T15:48:24.534Z,99990.00
2022-11-17T15:51:05.426Z,99995.00
2022-11-17T15:53:40.437Z,99988.00
2022-11-17T15:56:18.582Z,99993.00
2022-11-17T15:58:52.449Z,99990.00
2022-11-17T16:01:42.949Z,99974.00
2022-11-17T16:04:19.858Z,99981.00
2022-11-17T16:06:52.835Z,99997.00
2022-11-17T16:09:25.764Z,99985.00
2022-11-17T16:11:58.951Z,99988.00
2022-11-17T16:14:31.835Z,99987.00
2022-11-17T16:17:04.636Z,99989.00
2022-11-17T16:19:37.403Z,99990.00
2022-11-17T16:22:10.323Z,99984.00
2022-11-17T16:24:43.294Z,99979.00
2022-11-17T16:27:16.458Z,99976.00
2022-11-17T16:29:49.726Z,99977.00
2022-11-17T16:32:22.690Z,99989.00
2022-11-17T16:34:55.748Z,99987.00
2022-11-17T16:37:28.438Z,99979.00
2022-11-17T16:40:01.388Z,99988.00
2022-11-17T16:42:34.519Z,99992.00
2022-11-17T16:45:07.673Z,99984.00
2022-11-17T16:47:40.810Z,99987.00
2022-11-17T16:50:14.202Z,99990.00
2022-11-17T16:52:47.193Z,99985.00
2022-11-17T16:55:20.163Z,99997.00
2022-11-17T16:57:53.480Z,99987.00
2022-11-17T17:00:26.571Z,99987.00
2022-11-17T17:02:59.675Z,99977.00
2022-11-17T17:05:32.737Z,99981.00
2022-11-17T17:08:05.795Z,99981.00
2022-11-17T17:10:38.760Z,99980.00
2022-11-17T17:13:12.065Z,99977.00
2022-11-17T17:15:44.901Z,99982.00
2022-11-17T17:18:17.947Z,99972.00
2022-11-17T17:20:57.010Z,99975.00
2022-11-17T17:23:30.381Z,99976.00
2022-11-17T17:26:15.692Z,99988.00
2022-11-17T17:28:50.394Z,99991.00
2022-11-17T17:31:24.915Z,99988.00
2022-11-17T17:33:58.696Z,99979.00
2022-11-17T17:36:32.195Z,99976.00
2022-11-17T17:39:05.979Z,99984.00
2022-11-17T17:41:40.757Z,99982.00
2022-11-17T17:44:15.299Z,99987.00
2022-11-17T17:46:48.515Z,99987.00
2022-11-17T17:49:21.552Z,99997.00
2022-11-17T17:51:54.468Z,99995.00
2022-11-17T17:54:27.515Z,99998.00
2022-11-17T17:57:01.111Z,99994.00
2022-11-17T17:59:34.036Z,99998.00
2022-11-17T18:02:07.621Z,99989.00
2022-11-17T18:04:40.673Z,99997.00
2022-11-17T18:07:13.887Z,99997.00
2022-11-17T18:09:47.098Z,99998.00
2022-11-17T18:12:20.216Z,99993.00
2022-11-17T18:14:53.266Z,99998.00
2022-11-17T18:17:26.181Z,99993.00
2022-11-17T18:19:59.330Z,99993.00
2022-11-17T18:22:32.427Z,100001.00
2022-11-17T18:25:07.842Z,100002.00
2022-11-17T18:27:39.654Z,99993.00
2022-11-17T18:30:17.666Z,99988.00
2022-11-17T18:32:50.740Z,99995.00
2022-11-17T18:35:23.633Z,99991.00
2022-11-17T18:37:56.659Z,99986.00
2022-11-17T18:40:29.692Z,99991.00
2022-11-17T18:43:03.549Z,99989.00
2022-11-17T18:45:38.042Z,99986.00
2022-11-17T18:48:11.261Z,99993.00
2022-11-17T18:51:17.431Z,99983.00
2022-11-17T18:53:20.333Z,99991.00
2022-11-17T18:55:53.213Z,99983.00
2022-11-17T18:58:26.963Z,99981.00
2022-11-17T19:01:00.280Z,99980.00
2022-11-17T19:03:33.245Z,99975.00
2022-11-17T19:06:06.683Z,99973.00
2022-11-17T19:08:40.527Z,99984.00
2022-11-17T19:11:13.953Z,99983.00
2022-11-17T19:13:47.893Z,99989.00
2022-11-17T19:16:25.620Z,99991.00
2022-11-17T19:18:59.565Z,99997.00
2022-11-17T19:21:35.543Z,100002.00
2022-11-17T19:24:08.821Z,100007.00
2022-11-17T19:26:41.909Z,99994.00
2022-11-17T19:29:17.464Z,99998.00
2022-11-17T19:31:51.073Z,100002.00
2022-11-17T19:34:24.199Z,100001.00
2022-11-17T19:36:57.158Z,100005.00
2022-11-17T19:39:30.291Z,100005.00
2022-11-17T19:42:03.307Z,99996.00
2022-11-17T19:44:36.360Z,100001.00
2022-11-17T19:47:09.421Z,100003.00
2022-11-17T19:49:42.436Z,99992.00
2022-11-17T19:52:15.224Z,99986.00
2022-11-17T19:54:48.012Z,99994.00
2022-11-17T19:57:21.122Z,99997.00
2022-11-17T19:59:54.150Z,100004.00
2022-11-17T20:02:27.121Z,100001.00
2022-11-17T20:05:00.145Z,99997.00
2022-11-17T20:07:33.304Z,99998.00
2022-11-17T20:10:06.135Z,99989.00
2022-11-17T20:12:39.634Z,99992.00
2022-11-17T20:15:33.206Z,99984.00
2022-11-17T20:17:47.826Z,99986.00
2022-11-17T20:20:21.228Z,99982.00
2022-11-17T20:22:54.195Z,99991.00
2022-11-17T20:25:27.200Z,99982.00
2022-11-17T20:28:00.056Z,99988.00
2022-11-17T20:30:33.152Z,99989.00
2022-11-17T20:33:06.010Z,99983.00
2022-11-17T20:35:39.296Z,99984.00
2022-11-17T20:38:15.696Z,99981.00
2022-11-17T20:40:46.827Z,99986.00
2022-11-17T20:43:19.752Z,99988.00
2022-11-17T20:46:00.308Z,99991.00
2022-11-17T20:48:34.792Z,99984.00
2022-11-17T20:51:09.450Z,99976.00
2022-11-17T20:53:42.752Z,99967.00
2022-11-17T20:56:17.289Z,99973.00
2022-11-17T20:58:50.229Z,99977.00
2022-11-17T21:01:25.812Z,99965.00
2022-11-17T21:03:58.812Z,99961.00
2022-11-17T21:06:31.870Z,99979.00
2022-11-17T21:09:05.256Z,99966.00
2022-11-17T21:11:56.006Z,99960.00
2022-11-17T21:14:29.799Z,99954.00
2022-11-17T21:17:03.725Z,99942.00
2022-11-17T21:19:39.139Z,99945.00
2022-11-17T21:22:11.321Z,99941.00
2022-11-17T21:24:44.239Z,99935.00
2022-11-17T21:27:18.561Z,99934.00
2022-11-17T21:29:51.668Z,99941.00
2022-11-17T21:32:24.539Z,99924.00
2022-11-17T21:34:57.386Z,99929.00
2022-11-17T21:37:30.598Z,99928.00
2022-11-17T21:40:04.035Z,99930.00
2022-11-17T21:42:37.864Z,99915.00
2022-11-17T21:45:11.964Z,99916.00
2022-11-17T21:47:44.990Z,99907.00
2022-11-17T21:50:17.994Z,99908.00
2022-11-17T21:52:50.990Z,99888.00
2022-11-17T21:55:23.837Z,99871.00
2022-11-17T21:57:56.730Z,99873.00
2022-11-17T22:00:31.111Z,99869.00
2022-11-17T22:03:04.469Z,99874.00
2022-11-17T22:05:37.468Z,99859.00
2022-11-17T22:08:10.785Z,99875.00
2022-11-17T22:10:43.697Z,99869.00
2022-11-17T22:13:16.758Z,99875.00
2022-11-17T22:15:49.776Z,99861.00
2022-11-17T22:18:23.076Z,99865.00
2022-11-17T22:20:56.416Z,99860.00
2022-11-17T22:23:30.094Z,99861.00
2022-11-17T22:26:05.197Z,99851.00
2022-11-17T22:28:38.268Z,99842.00
2022-11-17T22:31:11.815Z,99849.00
2022-11-17T22:33:45.815Z,99856.00
2022-11-17T22:36:18.765Z,99846.00
2022-11-17T22:38:55.863Z,99834.00
2022-11-17T22:41:28.854Z,99845.00
2022-11-17T22:44:02.552Z,99859.00
2022-11-17T22:46:35.737Z,99843.00
2022-11-17T22:49:08.829Z,99844.00
2022-11-17T22:51:59.061Z,99841.00
2022-11-17T22:54:32.300Z,99862.00
2022-11-17T22:57:05.573Z,99864.00
2022-11-17T22:59:39.072Z,99873.00
2022-11-17T23:02:12.428Z,99873.00
2022-11-17T23:04:45.451Z,99869.00
2022-11-17T23:07:18.503Z,99855.00
2022-11-17T23:09:51.696Z,99860.00
2022-11-17T23:12:24.729Z,99842.00
2022-11-17T23:14:57.861Z,99848.00
2022-11-17T23:17:30.801Z,99846.00
2022-11-17T23:20:03.840Z,99847.00
2022-11-17T23:22:36.652Z,99844.00
2022-11-17T23:25:09.996Z,99849.00
2022-11-17T23:27:43.331Z,99840.00
2022-11-17T23:30:17.099Z,99837.00
2022-11-17T23:32:50.061Z,99841.00
2022-11-17T23:35:23.112Z,99839.00
2022-11-17T23:37:56.020Z,99849.00
2022-11-17T23:40:29.097Z,99836.00
2022-11-17T23:43:01.981Z,99841.00
2022-11-17T23:45:35.056Z,99842.00
2022-11-17T23:48:08.135Z,99833.00
2022-11-17T23:50:42.097Z,99837.00
2022-11-17T23:53:15.251Z,99833.00
2022-11-17T23:55:49.234Z,99840.00
2022-11-17T23:58:22.349Z,99834.00
